Latest Weather Observations for Yanakie

IDV60801

Issued at 1:31 pm EDT Wednesday 4 March 2015 (issued every 30 minutes, with the page automatically refreshed every 10 minutes)

About weather observations | Map of weather stations | Latest weather observations for VIC | Other Formats
Station Details ID: 085301 Name: YANAKIE Lat: -38.81 Lon: 146.19 Height: 13.3 m
Data from the previous 72 hours. | See also: Recent months at Yanakie
Date/Time
EDT
Temp
°C
App
Temp
°C
Dew
Point
Rel
Hum
%
Delta-T
°C
Wind Press
QNH
hPa
Press
MSL
hPa
Rain
since 9 am
mm
Dir
 
Spd
km/h
Gust
km/h
Spd
kts
Gust
kts
04/01:30pm 21.0 15.8 11.6 55 5.2 W 30 39 16 21 1011.9 1011.8 0.0
04/01:00pm 19.8 14.8 11.0 57 4.8 W 28 41 15 22 1012.2 1012.1 0.0
04/12:30pm 19.3 14.8 11.3 60 4.4 WNW 26 37 14 20 1012.7 1012.6 0.0
04/12:00pm 20.5 16.2 12.2 59 4.7 WNW 26 39 14 21 1013.1 1013.0 0.0
04/11:30am 18.5 14.1 11.6 64 3.8 WNW 26 37 14 20 1013.6 1013.5 0.0
04/11:00am 17.9 12.9 10.8 63 3.8 WNW 28 37 15 20 1013.8 1013.7 0.0
04/10:30am 17.8 14.0 11.1 65 3.6 WNW 22 32 12 17 1013.8 1013.7 0.0
04/10:00am 18.0 13.9 11.3 65 3.6 WNW 24 33 13 18 1013.7 1013.6 0.0
04/09:30am 18.1 14.6 12.1 68 3.3 NW 22 33 12 18 1013.7 1013.6 0.0
04/09:00am 17.4 14.4 12.5 73 2.7 NW 20 32 11 17 1013.8 1013.7 0.0
04/08:30am 16.0 13.6 12.7 81 1.8 NW 17 24 9 13 1013.9 1013.8 0.0
04/08:00am 14.7 12.2 12.4 86 1.3 NW 17 22 9 12 1013.7 1013.6 0.0
04/07:30am 14.0 11.7 11.9 87 1.1 NW 15 20 8 11 1013.6 1013.5 0.0
04/07:00am 13.6 11.7 11.7 88 1.0 NW 13 17 7 9 1013.4 1013.3 0.0
04/06:30am 12.9 11.6 11.1 89 0.9 NNW 9 15 5 8 1013.2 1013.1 0.0
04/06:00am 13.0 11.3 11.1 88 1.0 NW 11 15 6 8 1013.3 1013.2 0.0
04/05:30am 12.8 11.4 10.9 88 1.0 NNW 9 11 5 6 1013.5 1013.4 0.0
04/05:00am 14.1 13.4 12.1 88 1.1 NNW 7 11 4 6 1013.5 1013.4 0.0
04/04:30am 14.0 13.4 12.4 90 0.9 NW 7 9 4 5 1013.8 1013.7 0.0
04/04:00am 13.9 13.0 12.5 91 0.8 NW 9 11 5 6 1014.2 1014.1 0.0
04/03:30am 13.6 13.0 12.3 92 0.7 NW 7 9 4 5 1014.2 1014.1 0.0
04/03:00am 12.8 11.9 11.5 92 0.7 NW 7 7 4 4 1014.3 1014.2 0.0
04/02:30am 11.6 10.6 10.3 92 0.7 NW 6 7 3 4 1014.6 1014.5 0.0
04/02:00am 11.9 10.8 10.5 91 0.7 NW 7 9 4 5 1014.8 1014.7 0.0
04/01:30am 11.7 11.1 10.3 91 0.7 NNW 4 6 2 3 1015.3 1015.2 0.0
04/01:00am 12.6 11.8 11.2 91 0.7 NNW 6 6 3 3 1015.5 1015.4 0.0
04/12:30am 11.9 11.3 10.5 91 0.7 NNW 4 6 2 3 1015.8 1015.7 0.0
04/12:00am 11.6 10.3 10.0 90 0.8 N 7 9 4 5 1016.0 1015.9 0.0
 
Date/Time
EDT
Temp
°C
App
Temp
°C
Dew
Point
Rel
Hum
%
Delta-T
°C
Wind Press
QNH
hPa
Press
MSL
hPa
Rain
since 9 am
mm
Dir
 
Spd
km/h
Gust
km/h
Spd
kts
Gust
kts
03/11:30pm 12.2 11.0 10.4 89 0.9 N 7 9 4 5 1016.3 1016.2 0.0
03/11:00pm 12.3 11.1 10.4 88 1.0 NNW 7 9 4 5 1016.2 1016.1 0.0
03/10:30pm 12.5 11.3 10.4 87 1.1 WNW 7 9 4 5 1016.4 1016.3 0.0
03/10:00pm 13.1 11.7 10.8 86 1.2 W 9 9 5 5 1016.3 1016.2 0.0
03/09:30pm 12.9 11.9 10.4 85 1.3 NW 6 7 3 4 1016.1 1016.0 0.0
03/09:00pm 14.2 12.5 11.2 82 1.6 W 11 13 6 7 1016.0 1015.9 0.0
03/08:30pm 14.5 12.5 10.3 76 2.2 W 11 15 6 8 1015.8 1015.7 0.0
03/08:00pm 15.6 13.7 10.6 72 2.6 WSW 11 17 6 9 1015.6 1015.5 0.0
03/07:30pm 17.3 15.2 11.3 68 3.2 SW 13 17 7 9 1015.3 1015.2 0.0
03/07:00pm 18.8 16.5 11.6 63 4.0 WSW 15 20 8 11 1015.2 1015.1 0.0
03/06:30pm 19.8 17.5 11.8 60 4.4 SW 15 20 8 11 1015.2 1015.1 0.0
03/06:00pm 20.2 17.0 11.1 56 5.0 SW 19 24 10 13 1015.3 1015.2 0.0
03/05:30pm 20.9 18.0 12.3 58 4.8 SW 19 24 10 13 1015.4 1015.3 0.0
03/05:00pm 21.2 17.6 11.8 55 5.2 SW 22 28 12 15 1015.4 1015.3 0.0
03/04:30pm 21.5 17.9 11.8 54 5.4 SW 22 28 12 15 1015.5 1015.4 0.0
03/04:00pm 21.4 17.8 11.7 54 5.4 SW 22 30 12 16 1015.7 1015.6 0.0
03/03:30pm 22.3 19.4 12.3 53 5.7 SSW 19 26 10 14 1016.0 1015.9 0.0
03/03:00pm 22.5 19.3 11.3 49 6.2 SSW 19 26 10 14 1016.3 1016.2 0.0
03/02:30pm 22.3 19.7 12.0 52 5.8 SSW 17 26 9 14 1016.5 1016.4 0.0
03/02:00pm 22.0 19.7 11.7 52 5.8 SW 15 24 8 13 1016.5 1016.4 0.0
03/01:30pm 22.2 20.3 11.9 52 5.8 SSW 13 19 7 10 1016.6 1016.5 0.0
03/01:00pm 22.3 20.6 12.3 53 5.7 SSW 13 20 7 11 1016.9 1016.8 0.0
03/12:30pm 21.4 19.2 10.9 51 5.8 SSW 13 20 7 11 1017.2 1017.1 0.0
03/12:00pm 21.5 19.7 10.9 51 5.8 SSW 11 19 6 10 1017.3 1017.2 0.0
03/11:30am 21.5 19.1 11.5 53 5.6 SSW 15 24 8 13 1017.5 1017.4 0.0
03/11:00am 20.7 18.6 12.4 59 4.7 SSW 15 20 8 11 1017.6 1017.5 0.0
03/10:30am 18.9 16.4 12.2 65 3.7 SW 17 20 9 11 1017.5 1017.4 0.0
03/10:00am 19.2 17.7 14.2 73 2.9 SW 15 22 8 12 1017.2 1017.1 0.0
03/09:30am 17.0 16.4 14.6 86 1.4 WSW 11 17 6 9 1017.1 1017.0 0.0
03/09:00am 16.3 16.9 15.2 93 0.6 WNW 6 7 3 4 1016.7 1016.6 0.0
03/08:30am 14.2 14.0 13.1 93 0.6 WNW 6 6 3 3 1016.7 1016.6 0.0
03/08:00am 13.8 14.0 12.9 94 0.5 WNW 4 6 2 3 1016.7 1016.6 0.0
03/07:30am 12.6 12.3 11.5 93 0.6 NW 4 4 2 2 1016.3 1016.2 0.0
03/07:00am 12.6 11.9 11.5 93 0.6 NW 6 7 3 4 1015.9 1015.8 0.0
03/06:30am 11.9 11.8 10.8 93 0.6 W 2 4 1 2 1015.3 1015.2 0.0
03/06:00am 12.6 12.7 11.5 93 0.6 WSW 2 4 1 2 1015.1 1015.0 0.0
03/05:30am 12.5 12.6 11.4 93 0.6 WSW 2 4 1 2 1015.0 1014.9 0.0
03/05:00am 12.8 12.1 11.5 92 0.7 W 6 7 3 4 1014.5 1014.4 0.0
03/04:30am 12.9 12.6 11.6 92 0.7 W 4 6 2 3 1014.7 1014.6 0.0
03/04:00am 13.0 12.8 11.7 92 0.7 WNW 4 4 2 2 1014.9 1014.8 0.0
03/03:30am 13.3 12.8 12.2 93 0.6 WNW 6 7 3 4 1015.2 1015.1 0.0
03/03:00am 13.8 13.9 12.7 93 0.6 WNW 4 6 2 3 1015.0 1014.9 0.0
03/02:30am 14.0 13.5 12.7 92 0.7 W 7 9 4 5 1015.2 1015.1 0.0
03/02:00am 13.5 13.0 12.2 92 0.7 W 6 7 3 4 1015.0 1014.9 0.0
03/01:30am 13.8 13.8 12.4 91 0.8 W 4 6 2 3 1014.8 1014.7 0.0
03/01:00am 13.5 13.7 11.9 90 0.9 S 2 4 1 2 1014.8 1014.7 0.0
03/12:30am 13.4 13.9 11.6 89 1.0 CALM 0 0 0 0 1015.0 1014.9 0.0
03/12:00am 13.7 13.4 11.6 87 1.1 WSW 4 6 2 3 1015.2 1015.1 0.0
 
Date/Time
EDT
Temp
°C
App
Temp
°C
Dew
Point
Rel
Hum
%
Delta-T
°C
Wind Press
QNH
hPa
Press
MSL
hPa
Rain
since 9 am
mm
Dir
 
Spd
km/h
Gust
km/h
Spd
kts
Gust
kts
02/11:30pm 14.3 14.9 11.8 85 1.3 CALM 0 0 0 0 1015.4 1015.3 0.0
02/11:00pm 14.7 14.9 11.8 83 1.6 N 2 6 1 3 1015.6 1015.5 0.0
02/10:30pm 16.3 16.4 12.7 79 2.0 E 4 6 2 3 1015.8 1015.7 0.0
02/10:00pm 16.4 16.1 12.6 78 2.1 ENE 6 9 3 5 1015.7 1015.6 0.0
02/09:30pm 16.7 16.7 12.5 76 2.3 NE 4 6 2 3 1016.0 1015.9 0.0
02/09:00pm 17.0 16.1 12.5 75 2.5 ENE 9 15 5 8 1015.3 1015.2 0.0
02/08:30pm 17.2 16.7 12.5 74 2.6 E 7 11 4 6 1015.3 1015.2 0.0
02/08:00pm 17.1 16.4 12.0 72 2.8 E 7 13 4 7 1014.8 1014.7 0.0
02/07:30pm 17.7 17.1 12.2 70 3.0 E 7 11 4 6 1014.7 1014.6 0.0
02/07:00pm 18.3 16.9 12.1 67 3.4 E 11 19 6 10 1014.3 1014.2 0.0
02/06:30pm 18.8 16.5 11.9 64 3.8 ENE 15 20 8 11 1014.3 1014.2 0.0
02/06:00pm 19.2 16.6 12.0 63 4.0 ENE 17 24 9 13 1014.3 1014.2 0.0
02/05:30pm 19.6 17.3 11.6 60 4.4 ENE 15 19 8 10 1015.0 1014.9 0.0
02/05:00pm 20.0 18.1 11.8 59 4.5 E 13 19 7 10 1014.8 1014.7 0.0
02/04:30pm 20.4 18.3 11.3 56 5.0 E 13 20 7 11 1015.0 1014.9 0.0
02/04:00pm 19.6 17.3 11.9 61 4.3 ENE 15 24 8 13 1014.7 1014.6 0.0
02/03:30pm 20.6 18.7 11.8 57 4.9 E 13 20 7 11 1014.9 1014.8 0.0
02/03:00pm 20.6 18.5 11.0 54 5.3 ENE 13 19 7 10 1015.6 1015.5 0.0
02/02:30pm 21.0 19.0 10.2 50 5.9 ENE 11 20 6 11 1015.9 1015.8 0.0
02/02:00pm 22.2 20.7 10.7 48 6.3 E 9 15 5 8 1015.9 1015.8 0.0
02/01:30pm 21.6 20.1 10.4 49 6.1 E 9 15 5 8 1016.3 1016.2 0.0
02/01:00pm 20.6 18.6 10.1 51 5.7 E 11 17 6 9 1016.5 1016.4 0.0
02/12:30pm 20.1 18.0 9.7 51 5.6 E 11 22 6 12 1017.3 1017.2 0.0
02/12:00pm 19.8 17.3 9.7 52 5.4 ENE 13 22 7 12 1017.6 1017.5 0.0
02/11:30am 19.7 17.9 10.7 56 4.9 ENE 11 19 6 10 1018.0 1018.0 0.0
02/11:00am 18.5 15.8 10.3 59 4.4 ENE 15 24 8 13 1018.3 1018.3 0.0
02/10:30am 18.7 16.6 9.8 56 4.7 ENE 11 15 6 8 1018.8 1018.8 0.0
02/10:00am 18.1 16.8 10.0 59 4.3 ENE 7 13 4 7 1018.8 1018.8 0.0
02/09:30am 17.2 16.8 11.2 68 3.2 E 4 7 2 4 1018.6 1018.6 0.0
02/09:00am 15.2 16.3 13.4 89 1.0 CALM 0 0 0 0 1018.7 1018.7 0.2
02/08:30am 12.4 12.8 11.1 92 0.7 CALM 0 0 0 0 1018.9 1018.9 0.2
02/08:00am 9.7 9.4 8.6 93 0.5 CALM 0 0 0 0 1018.8 1018.8 0.2
02/07:30am 8.7 8.1 7.6 93 0.5 CALM 0 0 0 0 1018.7 1018.7 0.2
02/07:00am 8.4 7.8 7.3 93 0.5 CALM 0 6 0 3 1018.4 1018.4 0.2
02/06:30am 7.5 6.6 6.1 91 0.6 CALM 0 0 0 0 1018.4 1018.4 0.2
02/06:00am 7.5 6.6 6.0 90 0.7 CALM 0 0 0 0 1018.1 1018.1 0.2
02/05:30am 8.4 6.5 6.9 90 0.7 NE 6 6 3 3 1018.0 1018.0 0.2
02/05:00am 8.5 7.8 7.0 90 0.7 CALM 0 0 0 0 1018.0 1018.0 0.2
02/04:30am 8.6 7.9 6.9 89 0.8 CALM 0 0 0 0 1018.0 1018.0 0.2
02/04:00am 8.2 7.0 6.3 88 0.9 NNW 2 4 1 2 1018.1 1018.1 0.2
02/03:30am 8.9 7.8 6.9 87 0.9 WNW 2 4 1 2 1018.3 1018.3 0.2
02/03:00am 9.1 7.2 6.9 86 1.0 NW 6 7 3 4 1018.4 1018.4 0.2
02/02:30am 9.8 7.9 7.4 85 1.1 NW 7 11 4 6 1017.9 1017.9 0.2
02/02:00am 10.5 8.8 7.4 81 1.5 WNW 6 6 3 3 1017.7 1017.6 0.2
02/01:30am 11.2 9.8 7.3 77 1.9 WNW 4 6 2 3 1017.9 1017.9 0.2
02/01:00am 13.2 12.2 8.7 74 2.3 WNW 4 6 2 3 1017.7 1017.6 0.2
02/12:30am 13.8 12.3 9.3 74 2.3 NW 7 9 4 5 1017.9 1017.9 0.2
02/12:00am 14.0 12.5 9.2 73 2.4 WSW 7 11 4 6 1017.9 1017.9 0.2
 
Date/Time
EDT
Temp
°C
App
Temp
°C
Dew
Point
Rel
Hum
%
Delta-T
°C
Wind Press
QNH
hPa
Press
MSL
hPa
Rain
since 9 am
mm
Dir
 
Spd
km/h
Gust
km/h
Spd
kts
Gust
kts
01/11:30pm 13.7 12.2 9.0 73 2.4 SSW 7 11 4 6 1017.9 1017.9 0.2
01/11:00pm 13.7 12.2 9.0 73 2.4 SW 7 9 4 5 1018.1 1018.1 0.2
01/10:30pm 13.8 11.1 8.8 72 2.5 SW 13 20 7 11 1018.0 1018.0 0.2
01/10:00pm 14.1 11.4 8.9 71 2.6 SW 13 22 7 12 1018.2 1018.2 0.2
01/09:30pm 14.1 11.3 8.5 69 2.8 SW 13 17 7 9 1017.8 1017.8 0.2
01/09:00pm 15.0 11.2 9.1 68 3.0 WSW 19 24 10 13 1017.4 1017.3 0.2
01/08:30pm 15.2 12.2 9.3 68 3.0 SW 15 22 8 12 1017.2 1017.1 0.2
01/08:00pm 15.6 11.9 9.3 66 3.2 WSW 19 30 10 16 1017.3 1017.2 0.2
01/07:30pm 16.2 12.5 9.6 65 3.4 WSW 19 26 10 14 1016.8 1016.7 0.2
01/07:00pm 16.8 12.3 10.0 64 3.6 SW 24 32 13 17 1016.7 1016.6 0.2
01/06:30pm 18.3 14.0 10.9 62 4.0 SW 24 33 13 18 1016.6 1016.5 0.2
01/06:00pm 18.5 14.3 11.1 62 4.0 SW 24 32 13 17 1016.1 1016.0 0.2
01/05:30pm 18.8 14.4 11.6 63 4.0 SW 26 37 14 20 1015.7 1015.6 0.2
01/05:00pm 19.3 14.7 11.1 59 4.5 SW 26 33 14 18 1015.4 1015.3 0.2
01/04:30pm 20.1 14.9 11.6 58 4.7 SW 30 39 16 21 1015.5 1015.4 0.2
01/04:00pm 19.5 14.5 11.0 58 4.6 SW 28 35 15 19 1015.1 1015.0 0.2
01/03:30pm 21.0 15.4 11.6 55 5.2 SW 32 39 17 21 1014.8 1014.7 0.2
01/03:00pm 21.7 17.2 12.5 56 5.2 SW 28 37 15 20 1014.6 1014.5 0.2
01/02:30pm 21.2 16.2 11.0 52 5.6 SW 28 43 15 23 1014.3 1014.2 0.2
01/02:00pm 21.0 15.5 11.9 56 5.1 SW 32 39 17 21 1014.0 1013.9 0.2

Other Formats:

Comma delimited format used in spreadsheet applications
http://www.bom.gov.au/fwo/IDV60801/IDV60801.94911.axf

JavaScript Object Notation format (JSON) in row-major order
http://www.bom.gov.au/fwo/IDV60801/IDV60801.94911.json